createdAt,value
2019-03-29T00:01:12.037Z,100.00
2019-03-29T00:03:41.019Z,100.00
2019-03-29T00:06:10.779Z,100.00
2019-03-29T00:08:39.873Z,100.00
2019-03-29T00:11:08.696Z,100.00
2019-03-29T00:13:37.479Z,100.00
2019-03-29T00:16:06.252Z,100.00
2019-03-29T00:18:35.944Z,100.00
2019-03-29T00:21:05.062Z,100.00
2019-03-29T00:23:33.877Z,100.00
2019-03-29T00:26:02.594Z,100.00
2019-03-29T00:28:31.246Z,100.00
2019-03-29T00:31:02.880Z,100.00
2019-03-29T00:33:31.427Z,100.00
2019-03-29T00:36:00.168Z,100.00
2019-03-29T00:38:29.835Z,100.00
2019-03-29T00:40:59.006Z,100.00
2019-03-29T00:43:28.113Z,100.00
2019-03-29T00:45:59.463Z,100.00
2019-03-29T00:48:28.127Z,100.00
2019-03-29T00:50:56.899Z,100.00
2019-03-29T00:53:31.699Z,100.00
2019-03-29T00:56:00.387Z,100.00
2019-03-29T00:58:29.050Z,100.00
2019-03-29T01:00:59.312Z,100.00
2019-03-29T01:03:28.693Z,100.00
2019-03-29T01:05:57.361Z,100.00
2019-03-29T01:08:26.044Z,100.00
2019-03-29T01:10:54.687Z,100.00
2019-03-29T01:13:23.303Z,100.00
2019-03-29T01:15:51.874Z,100.00
2019-03-29T01:18:20.515Z,100.00
2019-03-29T01:20:49.180Z,100.00
2019-03-29T01:23:17.829Z,100.00
2019-03-29T01:25:46.324Z,100.00
2019-03-29T01:28:14.944Z,100.00
2019-03-29T01:30:43.570Z,100.00
2019-03-29T01:33:12.115Z,100.00
2019-03-29T01:35:40.713Z,100.00
2019-03-29T01:38:21.725Z,100.00
2019-03-29T01:40:43.825Z,100.00
2019-03-29T01:43:12.508Z,100.00
2019-03-29T01:45:41.088Z,100.00
2019-03-29T01:48:09.724Z,100.00
2019-03-29T01:50:38.424Z,100.00
2019-03-29T01:53:11.337Z,100.00
2019-03-29T01:55:40.756Z,100.00
2019-03-29T01:58:09.345Z,100.00
2019-03-29T02:00:38.012Z,100.00
2019-03-29T02:03:06.647Z,100.00
2019-03-29T02:05:38.309Z,100.00
2019-03-29T02:08:06.959Z,100.00
2019-03-29T02:10:35.532Z,100.00
2019-03-29T02:13:06.849Z,100.00
2019-03-29T02:15:35.487Z,100.00
2019-03-29T02:18:04.123Z,100.00
2019-03-29T02:20:32.757Z,100.00
2019-03-29T02:23:01.342Z,100.00
2019-03-29T02:25:29.942Z,100.00
2019-03-29T02:27:58.684Z,100.00
2019-03-29T02:30:27.365Z,100.00
2019-03-29T02:32:55.996Z,100.00
2019-03-29T02:35:24.614Z,100.00
2019-03-29T02:37:53.251Z,100.00
2019-03-29T02:40:22.820Z,100.00
2019-03-29T02:42:52.328Z,100.00
2019-03-29T02:45:23.413Z,100.00
2019-03-29T02:47:51.958Z,100.00
2019-03-29T02:50:20.637Z,100.00
2019-03-29T02:52:52.071Z,100.00
2019-03-29T02:55:20.805Z,100.00
2019-03-29T02:57:49.463Z,100.00
2019-03-29T03:00:18.282Z,100.00
2019-03-29T03:02:50.372Z,100.00
2019-03-29T03:05:19.019Z,100.00
2019-03-29T03:07:47.702Z,100.00
2019-03-29T03:10:19.368Z,100.00
2019-03-29T03:12:47.967Z,100.00
2019-03-29T03:15:16.748Z,100.00
2019-03-29T03:17:45.421Z,100.00
2019-03-29T03:20:18.047Z,100.00
2019-03-29T03:22:46.717Z,100.00
2019-03-29T03:25:15.373Z,100.00
2019-03-29T03:27:44.985Z,100.00
2019-03-29T03:30:14.060Z,100.00
2019-03-29T03:32:42.785Z,100.00
2019-03-29T03:35:12.349Z,100.00
2019-03-29T03:37:41.047Z,100.00
2019-03-29T03:40:10.121Z,100.00
2019-03-29T03:42:38.761Z,100.00
2019-03-29T03:45:08.828Z,100.00
2019-03-29T03:47:41.235Z,100.00
2019-03-29T03:50:33.926Z,100.00
2019-03-29T03:53:02.583Z,100.00
2019-03-29T03:55:32.263Z,100.00
2019-03-29T03:58:01.302Z,100.00
2019-03-29T04:00:44.806Z,100.00
2019-03-29T04:03:18.172Z,100.00
2019-03-29T04:05:46.847Z,100.00
2019-03-29T04:08:15.548Z,100.00
2019-03-29T04:10:47.932Z,100.00
2019-03-29T04:13:16.710Z,100.00
2019-03-29T04:15:45.377Z,100.00
2019-03-29T04:18:16.090Z,100.00
2019-03-29T04:20:44.387Z,100.00
2019-03-29T04:23:12.968Z,100.00
2019-03-29T04:25:41.582Z,100.00
2019-03-29T04:28:10.134Z,100.00
2019-03-29T04:30:38.746Z,100.00
2019-03-29T04:33:11.004Z,100.00
2019-03-29T04:35:37.794Z,100.00
2019-03-29T04:38:06.546Z,100.00
2019-03-29T04:40:35.199Z,100.00
2019-03-29T04:43:03.773Z,100.00
2019-03-29T04:45:32.462Z,100.00
2019-03-29T04:48:01.036Z,100.00
2019-03-29T04:50:29.532Z,100.00
2019-03-29T04:52:58.177Z,100.00
2019-03-29T04:55:26.857Z,100.00
2019-03-29T04:57:55.422Z,100.00
2019-03-29T05:00:24.102Z,100.00
2019-03-29T05:02:52.661Z,100.00
2019-03-29T05:05:21.300Z,100.00
2019-03-29T05:07:49.802Z,100.00
2019-03-29T05:10:21.394Z,100.00
2019-03-29T05:12:48.653Z,100.00
2019-03-29T05:15:17.298Z,100.00
2019-03-29T05:17:45.872Z,100.00
2019-03-29T05:20:14.521Z,100.00
2019-03-29T05:22:43.204Z,100.00
2019-03-29T05:25:11.837Z,100.00
2019-03-29T05:27:40.450Z,100.00
2019-03-29T05:30:09.288Z,100.00
2019-03-29T05:32:37.821Z,100.00
2019-03-29T05:35:07.414Z,100.00
2019-03-29T05:37:35.983Z,100.00
2019-03-29T05:40:06.433Z,100.00
2019-03-29T05:42:34.934Z,100.00
2019-03-29T05:45:04.468Z,100.00
2019-03-29T05:47:33.084Z,100.00
2019-03-29T05:50:01.719Z,100.00
2019-03-29T05:52:33.369Z,100.00
2019-03-29T05:55:02.130Z,100.00
2019-03-29T05:57:30.620Z,100.00
2019-03-29T05:59:59.241Z,100.00
2019-03-29T06:02:28.017Z,100.00
2019-03-29T06:04:59.303Z,100.00
2019-03-29T06:07:28.123Z,100.00
2019-03-29T06:09:59.604Z,100.00
2019-03-29T06:12:35.894Z,100.00
2019-03-29T06:15:05.951Z,100.00
2019-03-29T06:17:48.841Z,100.00
2019-03-29T06:20:23.074Z,100.00
2019-03-29T06:22:51.870Z,100.00
2019-03-29T06:25:20.672Z,97.40
2019-03-29T06:27:50.425Z,95.65
2019-03-29T06:30:22.081Z,94.89
2019-03-29T06:32:50.753Z,90.12
2019-03-29T06:35:19.432Z,90.21
2019-03-29T06:37:49.029Z,85.89
2019-03-29T06:40:26.673Z,79.66
2019-03-29T06:42:58.203Z,78.68
2019-03-29T06:45:28.617Z,71.76
2019-03-29T06:48:02.851Z,65.69
2019-03-29T06:50:33.903Z,63.91
2019-03-29T06:53:04.712Z,56.69
2019-03-29T06:55:35.884Z,53.17
2019-03-29T06:58:09.788Z,52.06
2019-03-29T07:00:39.342Z,51.23
2019-03-29T07:03:11.995Z,47.89
2019-03-29T07:05:46.547Z,45.65
2019-03-29T07:08:16.130Z,42.13
2019-03-29T07:10:54.189Z,39.81
2019-03-29T07:13:23.120Z,40.56
2019-03-29T07:15:54.192Z,38.42
2019-03-29T07:18:23.403Z,37.91
2019-03-29T07:20:52.238Z,36.45
2019-03-29T07:23:21.585Z,34.32
2019-03-29T07:25:56.599Z,35.17
2019-03-29T07:28:26.445Z,33.52
2019-03-29T07:30:57.143Z,32.78
2019-03-29T07:33:29.141Z,34.88
2019-03-29T07:35:59.429Z,33.11
2019-03-29T07:38:30.984Z,32.30
2019-03-29T07:41:02.698Z,33.03
2019-03-29T07:43:33.914Z,32.94
2019-03-29T07:46:14.422Z,32.47
2019-03-29T07:48:47.367Z,30.49
2019-03-29T07:51:24.110Z,31.84
2019-03-29T07:53:52.480Z,29.69
2019-03-29T07:56:21.511Z,30.55
2019-03-29T07:58:50.385Z,29.17
2019-03-29T08:01:19.090Z,29.59
2019-03-29T08:03:51.224Z,27.93
2019-03-29T08:06:18.292Z,28.37
2019-03-29T08:08:46.927Z,28.41
2019-03-29T08:11:25.416Z,28.70
2019-03-29T08:13:45.822Z,28.56
2019-03-29T08:16:14.494Z,27.03
2019-03-29T08:18:43.047Z,26.63
2019-03-29T08:21:11.688Z,25.68
2019-03-29T08:23:40.326Z,25.81
2019-03-29T08:26:09.098Z,25.00
2019-03-29T08:28:37.889Z,24.23
2019-03-29T08:31:06.819Z,24.07
2019-03-29T08:33:35.485Z,23.92
2019-03-29T08:36:04.374Z,23.17
2019-03-29T08:38:33.230Z,25.24
2019-03-29T08:41:01.965Z,24.88
2019-03-29T08:43:30.661Z,23.14
2019-03-29T08:45:59.441Z,22.86
2019-03-29T08:48:28.164Z,21.70
2019-03-29T08:50:56.990Z,21.76
2019-03-29T08:53:27.772Z,21.31
2019-03-29T08:55:57.909Z,22.83
2019-03-29T08:58:29.060Z,23.56
2019-03-29T09:00:57.733Z,23.45
2019-03-29T09:03:26.925Z,23.85
2019-03-29T09:05:56.080Z,22.71
2019-03-29T09:08:24.914Z,22.42
2019-03-29T09:10:53.661Z,22.83
2019-03-29T09:13:24.247Z,21.23
2019-03-29T09:15:53.008Z,21.82
2019-03-29T09:18:21.907Z,23.81
2019-03-29T09:20:58.619Z,24.05
2019-03-29T09:23:30.109Z,22.78
2019-03-29T09:25:57.846Z,22.24
2019-03-29T09:28:26.638Z,23.86
2019-03-29T09:30:57.035Z,23.64
2019-03-29T09:33:28.756Z,22.43
2019-03-29T09:35:58.935Z,21.12
2019-03-29T09:38:29.217Z,21.28
2019-03-29T09:40:59.208Z,21.24
2019-03-29T09:43:28.132Z,24.16
2019-03-29T09:45:56.808Z,22.82
2019-03-29T09:48:25.438Z,22.44
2019-03-29T09:50:54.278Z,21.58
2019-03-29T09:53:24.676Z,20.60
2019-03-29T09:55:56.140Z,20.27
2019-03-29T09:58:28.178Z,19.75
2019-03-29T10:00:56.963Z,21.89
2019-03-29T10:03:27.742Z,20.42
2019-03-29T10:05:56.427Z,19.46
2019-03-29T10:08:29.490Z,18.14
2019-03-29T10:10:58.086Z,19.80
2019-03-29T10:13:26.632Z,19.04
2019-03-29T10:15:55.275Z,19.69
2019-03-29T10:18:23.877Z,19.84
2019-03-29T10:20:52.585Z,19.53
2019-03-29T10:23:21.258Z,19.47
2019-03-29T10:25:49.894Z,18.76
2019-03-29T10:28:18.709Z,17.90
2019-03-29T10:30:47.445Z,18.23
2019-03-29T10:33:16.060Z,19.14
2019-03-29T10:35:52.078Z,19.84
2019-03-29T10:38:18.294Z,19.79
2019-03-29T10:40:46.098Z,18.53
2019-03-29T10:43:15.221Z,18.67
2019-03-29T10:45:44.007Z,18.17
2019-03-29T10:48:16.982Z,17.87
2019-03-29T10:50:45.997Z,19.20
2019-03-29T10:53:14.784Z,19.04
2019-03-29T10:55:44.379Z,18.40
2019-03-29T10:58:13.495Z,17.39
2019-03-29T11:00:46.165Z,16.73
2019-03-29T11:03:15.403Z,17.19
2019-03-29T11:05:44.263Z,17.94
2019-03-29T11:08:14.618Z,16.98
2019-03-29T11:10:43.677Z,18.42
2019-03-29T11:13:15.428Z,17.79
2019-03-29T11:15:44.504Z,19.58
2019-03-29T11:18:13.499Z,18.33
2019-03-29T11:20:47.234Z,18.38
2019-03-29T11:23:17.575Z,20.32
2019-03-29T11:25:48.657Z,20.95
2019-03-29T11:28:18.996Z,23.42
2019-03-29T11:30:47.967Z,22.79
2019-03-29T11:33:18.458Z,20.30
2019-03-29T11:35:49.394Z,20.80
2019-03-29T11:38:18.164Z,24.22
2019-03-29T11:40:47.377Z,25.02
2019-03-29T11:43:26.754Z,25.86
2019-03-29T11:45:46.978Z,25.29
2019-03-29T11:48:15.790Z,23.92
2019-03-29T11:50:44.908Z,24.71
2019-03-29T11:53:14.045Z,25.37
2019-03-29T11:55:43.249Z,25.37
2019-03-29T11:58:12.368Z,24.74
2019-03-29T12:00:41.633Z,22.11
2019-03-29T12:03:14.648Z,24.01
2019-03-29T12:05:43.658Z,23.15
2019-03-29T12:08:12.872Z,22.84
2019-03-29T12:10:42.080Z,20.77
2019-03-29T12:13:11.374Z,20.65
2019-03-29T12:15:41.804Z,20.65
2019-03-29T12:18:10.929Z,18.82
2019-03-29T12:20:39.915Z,19.33
2019-03-29T12:23:09.081Z,22.08
2019-03-29T12:25:38.490Z,19.52
2019-03-29T12:28:07.572Z,21.75
2019-03-29T12:30:37.223Z,23.36
2019-03-29T12:33:09.538Z,23.63
2019-03-29T12:35:38.606Z,24.31
2019-03-29T12:38:07.443Z,25.89
2019-03-29T12:40:36.436Z,26.46
2019-03-29T12:43:05.729Z,26.10
2019-03-29T12:45:37.852Z,27.09
2019-03-29T12:48:06.950Z,25.09
2019-03-29T12:50:36.100Z,27.45
2019-03-29T12:53:05.124Z,27.68
2019-03-29T12:55:34.217Z,28.29
2019-03-29T12:58:03.322Z,28.30
2019-03-29T13:00:32.298Z,27.89
2019-03-29T13:03:01.330Z,28.56
2019-03-29T13:05:32.923Z,29.29
2019-03-29T13:08:01.634Z,28.86
2019-03-29T13:10:30.592Z,28.93
2019-03-29T13:13:00.696Z,29.07
2019-03-29T13:15:35.285Z,28.62
2019-03-29T13:18:06.182Z,26.33
2019-03-29T13:20:35.366Z,24.95
2019-03-29T13:23:04.203Z,26.90
2019-03-29T13:25:35.975Z,27.79
2019-03-29T13:28:04.799Z,27.54
2019-03-29T13:30:36.370Z,24.49
2019-03-29T13:33:05.460Z,23.96
2019-03-29T13:35:34.196Z,23.35
2019-03-29T13:38:02.934Z,22.49
2019-03-29T13:40:31.636Z,22.48
2019-03-29T13:43:00.415Z,23.18
2019-03-29T13:45:29.428Z,23.13
2019-03-29T13:47:58.277Z,22.04
2019-03-29T13:50:27.040Z,24.19
2019-03-29T13:52:58.626Z,24.21
2019-03-29T13:55:27.598Z,24.71
2019-03-29T13:57:56.291Z,24.85
2019-03-29T14:00:24.962Z,25.90
2019-03-29T14:02:53.658Z,24.65
2019-03-29T14:05:22.397Z,25.65
2019-03-29T14:07:51.074Z,25.79
2019-03-29T14:10:19.861Z,26.67
2019-03-29T14:12:48.603Z,26.28
2019-03-29T14:15:17.455Z,27.01
2019-03-29T14:17:46.164Z,26.42
2019-03-29T14:20:17.735Z,26.91
2019-03-29T14:22:46.441Z,26.86
2019-03-29T14:25:15.148Z,26.47
2019-03-29T14:27:43.831Z,25.92
2019-03-29T14:30:12.679Z,26.67
2019-03-29T14:32:41.429Z,27.10
2019-03-29T14:35:10.464Z,27.87
2019-03-29T14:37:39.190Z,28.01
2019-03-29T14:40:08.582Z,28.17
2019-03-29T14:42:40.340Z,28.65
2019-03-29T14:45:09.646Z,28.84
2019-03-29T14:47:43.012Z,29.59
2019-03-29T14:50:10.733Z,28.20
2019-03-29T14:52:40.076Z,28.79
2019-03-29T14:55:12.352Z,27.70
2019-03-29T14:57:41.253Z,27.63
2019-03-29T15:00:12.619Z,29.42
2019-03-29T15:02:41.357Z,29.02
2019-03-29T15:05:10.069Z,29.23
2019-03-29T15:07:41.049Z,29.83
2019-03-29T15:10:26.813Z,30.00
2019-03-29T15:12:57.077Z,30.09
2019-03-29T15:15:25.783Z,31.27
2019-03-29T15:17:54.586Z,30.68
2019-03-29T15:20:23.319Z,30.25
2019-03-29T15:22:52.017Z,30.48
2019-03-29T15:25:20.707Z,30.23
2019-03-29T15:27:49.449Z,30.44
2019-03-29T15:30:18.264Z,31.13
2019-03-29T15:32:47.001Z,31.42
2019-03-29T15:35:15.792Z,31.27
2019-03-29T15:37:44.505Z,32.08
2019-03-29T15:40:13.502Z,32.19
2019-03-29T15:42:42.233Z,31.86
2019-03-29T15:45:20.429Z,32.12
2019-03-29T15:47:41.561Z,32.77
2019-03-29T15:50:10.300Z,32.87
2019-03-29T15:52:39.156Z,33.66
2019-03-29T15:55:11.230Z,33.75
2019-03-29T15:57:39.063Z,33.55
2019-03-29T16:00:11.894Z,33.50
2019-03-29T16:02:40.633Z,33.78
2019-03-29T16:05:10.902Z,34.13
2019-03-29T16:07:39.643Z,34.50
2019-03-29T16:10:08.542Z,34.80
2019-03-29T16:12:37.237Z,35.04
2019-03-29T16:15:07.348Z,35.82
2019-03-29T16:17:36.081Z,37.06
2019-03-29T16:20:05.789Z,38.24
2019-03-29T16:22:34.736Z,38.96
2019-03-29T16:25:04.767Z,40.01
2019-03-29T16:27:33.514Z,40.62
2019-03-29T16:30:02.355Z,41.54
2019-03-29T16:32:31.058Z,41.72
2019-03-29T16:34:59.794Z,41.71
2019-03-29T16:37:28.501Z,42.67
2019-03-29T16:39:57.244Z,42.75
2019-03-29T16:42:25.959Z,43.12
2019-03-29T16:44:57.260Z,43.49
2019-03-29T16:47:25.962Z,43.71
2019-03-29T16:49:57.437Z,43.95
2019-03-29T16:52:26.184Z,43.66
2019-03-29T16:54:54.923Z,44.18
2019-03-29T16:57:26.517Z,44.01
2019-03-29T16:59:55.208Z,44.44
2019-03-29T17:02:23.952Z,44.38
2019-03-29T17:04:52.679Z,44.81
2019-03-29T17:07:21.555Z,45.10
2019-03-29T17:09:50.346Z,44.15
2019-03-29T17:12:19.098Z,44.46
2019-03-29T17:14:47.806Z,44.72
2019-03-29T17:17:16.546Z,44.81
2019-03-29T17:19:45.231Z,44.89
2019-03-29T17:22:14.172Z,45.33
2019-03-29T17:24:56.105Z,45.88
2019-03-29T17:27:13.348Z,46.23
2019-03-29T17:29:42.355Z,46.89
2019-03-29T17:32:11.496Z,47.53
2019-03-29T17:34:40.487Z,48.08
2019-03-29T17:37:09.491Z,48.84
2019-03-29T17:39:38.537Z,50.49
2019-03-29T17:42:07.544Z,50.97
2019-03-29T17:44:36.540Z,51.89
2019-03-29T17:47:05.595Z,52.97
2019-03-29T17:49:34.597Z,54.45
2019-03-29T17:52:03.591Z,55.77
2019-03-29T17:54:32.648Z,58.00
2019-03-29T17:57:01.697Z,58.92
2019-03-29T17:59:30.706Z,61.19
2019-03-29T18:02:09.284Z,60.82
2019-03-29T18:04:30.493Z,61.58
2019-03-29T18:06:59.551Z,62.81
2019-03-29T18:09:28.550Z,62.82
2019-03-29T18:11:57.606Z,63.45
2019-03-29T18:14:26.612Z,63.52
2019-03-29T18:16:55.657Z,63.86
2019-03-29T18:19:27.705Z,64.69
2019-03-29T18:21:56.701Z,65.12
2019-03-29T18:24:26.918Z,65.72
2019-03-29T18:26:55.915Z,66.19
2019-03-29T18:29:24.973Z,65.91
2019-03-29T18:31:54.229Z,66.70
2019-03-29T18:34:24.450Z,68.16
2019-03-29T18:36:54.583Z,68.29
2019-03-29T18:39:23.810Z,68.27
2019-03-29T18:41:52.852Z,69.65
2019-03-29T18:44:21.977Z,68.92
2019-03-29T18:46:51.199Z,69.41
2019-03-29T18:49:20.228Z,71.39
2019-03-29T18:51:49.287Z,72.46
2019-03-29T18:54:18.291Z,72.53
2019-03-29T18:56:47.296Z,73.08
2019-03-29T18:59:16.472Z,72.75
2019-03-29T19:01:45.495Z,72.94
2019-03-29T19:04:14.543Z,72.34
2019-03-29T19:06:43.555Z,72.69
2019-03-29T19:09:12.608Z,72.60
2019-03-29T19:11:41.653Z,72.60
2019-03-29T19:14:10.713Z,73.07
2019-03-29T19:16:41.094Z,73.07
2019-03-29T19:19:10.617Z,73.40
2019-03-29T19:21:39.839Z,72.71
2019-03-29T19:24:08.887Z,72.79
2019-03-29T19:26:37.942Z,72.86
2019-03-29T19:29:06.933Z,73.31
2019-03-29T19:31:36.001Z,74.29
2019-03-29T19:34:06.405Z,73.82
2019-03-29T19:36:35.470Z,73.13
2019-03-29T19:39:06.190Z,72.78
2019-03-29T19:41:35.255Z,72.30
2019-03-29T19:44:04.368Z,70.51
2019-03-29T19:46:33.400Z,68.35
2019-03-29T19:49:02.513Z,68.29
2019-03-29T19:51:31.566Z,69.46
2019-03-29T19:54:07.155Z,70.55
2019-03-29T19:56:31.419Z,71.46
2019-03-29T19:59:00.420Z,73.11
2019-03-29T20:01:29.732Z,75.81
2019-03-29T20:03:58.760Z,79.92
2019-03-29T20:06:28.222Z,93.75
2019-03-29T20:09:00.962Z,100.00
2019-03-29T20:11:28.739Z,100.00
2019-03-29T20:13:57.750Z,100.00
2019-03-29T20:16:26.916Z,100.00
2019-03-29T20:18:55.940Z,100.00
2019-03-29T20:21:24.971Z,100.00
2019-03-29T20:23:54.097Z,100.00
2019-03-29T20:26:23.238Z,100.00
2019-03-29T20:28:52.413Z,100.00
2019-03-29T20:31:21.416Z,99.64
2019-03-29T20:33:50.432Z,100.00
2019-03-29T20:36:23.139Z,100.00
2019-03-29T20:38:50.259Z,100.00
2019-03-29T20:41:19.307Z,100.00
2019-03-29T20:43:48.345Z,96.44
2019-03-29T20:46:18.996Z,96.84
2019-03-29T20:48:48.691Z,96.80
2019-03-29T20:51:17.711Z,96.32
2019-03-29T20:53:46.748Z,96.33
2019-03-29T20:56:15.763Z,97.32
2019-03-29T20:58:44.777Z,96.27
2019-03-29T21:01:14.048Z,99.27
2019-03-29T21:03:43.096Z,100.00
2019-03-29T21:06:12.150Z,100.00
2019-03-29T21:08:41.200Z,100.00
2019-03-29T21:11:10.826Z,100.00
2019-03-29T21:13:43.223Z,100.00
2019-03-29T21:16:12.358Z,100.00
2019-03-29T21:18:41.493Z,100.00
2019-03-29T21:21:12.055Z,100.00
2019-03-29T21:23:41.112Z,100.00
2019-03-29T21:26:10.114Z,100.00
2019-03-29T21:28:40.312Z,100.00
2019-03-29T21:31:09.064Z,100.00
2019-03-29T21:33:40.603Z,100.00
2019-03-29T21:36:08.226Z,100.00
2019-03-29T21:38:37.078Z,100.00
2019-03-29T21:41:05.918Z,100.00
2019-03-29T21:43:34.614Z,100.00
2019-03-29T21:46:03.360Z,100.00
2019-03-29T21:48:32.281Z,100.00
2019-03-29T21:51:01.033Z,100.00
2019-03-29T21:53:29.724Z,100.00
2019-03-29T21:55:58.437Z,100.00
2019-03-29T21:58:27.133Z,100.00
2019-03-29T22:00:55.855Z,100.00
2019-03-29T22:03:24.601Z,100.00
2019-03-29T22:05:53.410Z,100.00
2019-03-29T22:08:22.156Z,100.00
2019-03-29T22:10:50.825Z,100.00
2019-03-29T22:13:19.515Z,100.00
2019-03-29T22:15:48.214Z,100.00
2019-03-29T22:18:16.921Z,100.00
2019-03-29T22:20:45.663Z,100.00
2019-03-29T22:23:14.225Z,100.00
2019-03-29T22:25:42.902Z,100.00
2019-03-29T22:28:11.541Z,100.00
2019-03-29T22:30:40.112Z,100.00
2019-03-29T22:33:08.757Z,100.00
2019-03-29T22:35:37.372Z,100.00
2019-03-29T22:38:06.029Z,100.00
2019-03-29T22:40:34.667Z,100.00
2019-03-29T22:43:03.240Z,100.00
2019-03-29T22:45:31.842Z,100.00
2019-03-29T22:48:00.471Z,100.00
2019-03-29T22:50:29.085Z,100.00
2019-03-29T22:52:57.641Z,100.00
2019-03-29T22:55:26.320Z,100.00
2019-03-29T22:57:54.927Z,100.00
2019-03-29T23:00:42.392Z,100.00
2019-03-29T23:03:11.132Z,100.00
2019-03-29T23:05:39.816Z,100.00
2019-03-29T23:08:08.458Z,100.00
2019-03-29T23:10:37.218Z,100.00
2019-03-29T23:13:05.839Z,100.00
2019-03-29T23:15:34.534Z,100.00
2019-03-29T23:18:03.183Z,100.00
2019-03-29T23:20:31.792Z,100.00
2019-03-29T23:23:00.366Z,100.00
2019-03-29T23:25:29.043Z,100.00
2019-03-29T23:28:00.618Z,100.00
2019-03-29T23:30:29.306Z,100.00
2019-03-29T23:32:57.787Z,100.00
2019-03-29T23:35:26.437Z,100.00
2019-03-29T23:37:55.079Z,100.00
2019-03-29T23:40:23.704Z,100.00
2019-03-29T23:42:55.399Z,100.00
2019-03-29T23:45:24.043Z,100.00
2019-03-29T23:47:55.678Z,100.00
2019-03-29T23:50:24.346Z,100.00
2019-03-29T23:52:52.964Z,100.00
2019-03-29T23:55:21.561Z,100.00
2019-03-29T23:57:50.682Z,100.00
